sensor_id;sensor_type;location;lat;lon;timestamp;temperature;humidity
14585;DHT22;7379;51.506;11.876;2022-12-20T00:01:21;2.60;79.00
14585;DHT22;7379;51.506;11.876;2022-12-20T00:03:49;2.60;78.90
14585;DHT22;7379;51.506;11.876;2022-12-20T00:06:16;2.70;79.00
14585;DHT22;7379;51.506;11.876;2022-12-20T00:08:44;2.70;78.70
14585;DHT22;7379;51.506;11.876;2022-12-20T00:11:12;2.70;78.40
14585;DHT22;7379;51.506;11.876;2022-12-20T00:13:40;2.70;78.10
14585;DHT22;7379;51.506;11.876;2022-12-20T00:16:08;2.70;78.20
14585;DHT22;7379;51.506;11.876;2022-12-20T00:18:36;2.80;78.10
14585;DHT22;7379;51.506;11.876;2022-12-20T00:21:05;2.80;77.90
14585;DHT22;7379;51.506;11.876;2022-12-20T00:23:33;2.70;77.80
14585;DHT22;7379;51.506;11.876;2022-12-20T00:26:02;2.80;78.10
14585;DHT22;7379;51.506;11.876;2022-12-20T00:28:29;2.70;78.00
14585;DHT22;7379;51.506;11.876;2022-12-20T00:30:58;2.80;78.10
14585;DHT22;7379;51.506;11.876;2022-12-20T00:33:24;2.80;78.40
14585;DHT22;7379;51.506;11.876;2022-12-20T00:35:53;2.80;78.40
14585;DHT22;7379;51.506;11.876;2022-12-20T00:38:20;2.80;78.30
14585;DHT22;7379;51.506;11.876;2022-12-20T00:40:46;2.80;78.30
14585;DHT22;7379;51.506;11.876;2022-12-20T00:43:13;2.80;78.20
14585;DHT22;7379;51.506;11.876;2022-12-20T00:45:40;2.80;78.00
14585;DHT22;7379;51.506;11.876;2022-12-20T00:48:09;2.80;78.20
14585;DHT22;7379;51.506;11.876;2022-12-20T00:50:35;2.80;78.10
14585;DHT22;7379;51.506;11.876;2022-12-20T00:53:03;2.80;78.00
14585;DHT22;7379;51.506;11.876;2022-12-20T00:55:29;2.80;78.00
14585;DHT22;7379;51.506;11.876;2022-12-20T00:57:56;2.80;78.80
14585;DHT22;7379;51.506;11.876;2022-12-20T01:00:23;2.80;78.20
14585;DHT22;7379;51.506;11.876;2022-12-20T01:02:50;2.90;78.10
14585;DHT22;7379;51.506;11.876;2022-12-20T01:05:18;2.90;77.80
14585;DHT22;7379;51.506;11.876;2022-12-20T01:07:45;2.90;77.60
14585;DHT22;7379;51.506;11.876;2022-12-20T01:10:11;2.90;77.20
14585;DHT22;7379;51.506;11.876;2022-12-20T01:12:38;2.80;76.90
14585;DHT22;7379;51.506;11.876;2022-12-20T01:15:06;2.80;76.80
14585;DHT22;7379;51.506;11.876;2022-12-20T01:17:33;2.80;77.00
14585;DHT22;7379;51.506;11.876;2022-12-20T01:20:00;2.80;77.30
14585;DHT22;7379;51.506;11.876;2022-12-20T01:22:28;2.80;77.50
14585;DHT22;7379;51.506;11.876;2022-12-20T01:24:55;2.80;77.60
14585;DHT22;7379;51.506;11.876;2022-12-20T01:27:22;2.80;77.80
14585;DHT22;7379;51.506;11.876;2022-12-20T01:29:49;2.80;78.20
14585;DHT22;7379;51.506;11.876;2022-12-20T01:32:15;2.80;78.10
14585;DHT22;7379;51.506;11.876;2022-12-20T01:34:42;2.90;77.70
14585;DHT22;7379;51.506;11.876;2022-12-20T01:37:09;2.80;77.70
14585;DHT22;7379;51.506;11.876;2022-12-20T01:39:37;2.80;77.80
14585;DHT22;7379;51.506;11.876;2022-12-20T01:42:04;2.80;77.30
14585;DHT22;7379;51.506;11.876;2022-12-20T01:44:55;2.80;76.80
14585;DHT22;7379;51.506;11.876;2022-12-20T01:47:24;2.80;76.50
14585;DHT22;7379;51.506;11.876;2022-12-20T01:49:54;2.80;76.40
14585;DHT22;7379;51.506;11.876;2022-12-20T01:52:27;2.80;76.60
14585;DHT22;7379;51.506;11.876;2022-12-20T01:55:01;2.70;76.60
14585;DHT22;7379;51.506;11.876;2022-12-20T01:57:33;2.80;77.10
14585;DHT22;7379;51.506;11.876;2022-12-20T02:00:00;2.70;77.20
14585;DHT22;7379;51.506;11.876;2022-12-20T02:02:29;2.80;77.50
14585;DHT22;7379;51.506;11.876;2022-12-20T02:04:57;2.70;77.30
14585;DHT22;7379;51.506;11.876;2022-12-20T02:07:26;2.80;77.80
14585;DHT22;7379;51.506;11.876;2022-12-20T02:09:57;2.80;77.30
14585;DHT22;7379;51.506;11.876;2022-12-20T02:12:25;2.80;77.10
14585;DHT22;7379;51.506;11.876;2022-12-20T02:15:03;2.80;77.30
14585;DHT22;7379;51.506;11.876;2022-12-20T02:17:44;2.80;76.80
14585;DHT22;7379;51.506;11.876;2022-12-20T02:26:30;2.80;77.10
14585;DHT22;7379;51.506;11.876;2022-12-20T02:29:14;2.80;77.20
14585;DHT22;7379;51.506;11.876;2022-12-20T02:31:50;2.80;77.40
14585;DHT22;7379;51.506;11.876;2022-12-20T02:34:19;2.80;77.60
14585;DHT22;7379;51.506;11.876;2022-12-20T02:36:49;2.80;77.60
14585;DHT22;7379;51.506;11.876;2022-12-20T02:39:16;2.80;77.40
14585;DHT22;7379;51.506;11.876;2022-12-20T02:41:45;2.80;77.50
14585;DHT22;7379;51.506;11.876;2022-12-20T02:44:15;2.80;77.30
14585;DHT22;7379;51.506;11.876;2022-12-20T02:47:06;2.80;77.30
14585;DHT22;7379;51.506;11.876;2022-12-20T02:49:38;2.80;77.30
14585;DHT22;7379;51.506;11.876;2022-12-20T02:52:07;2.80;77.20
14585;DHT22;7379;51.506;11.876;2022-12-20T02:54:35;2.80;77.10
14585;DHT22;7379;51.506;11.876;2022-12-20T02:57:07;2.80;77.00
14585;DHT22;7379;51.506;11.876;2022-12-20T02:59:40;2.80;77.20
14585;DHT22;7379;51.506;11.876;2022-12-20T03:02:10;2.80;77.60
14585;DHT22;7379;51.506;11.876;2022-12-20T03:04:40;2.80;78.30
14585;DHT22;7379;51.506;11.876;2022-12-20T03:07:09;2.90;78.80
14585;DHT22;7379;51.506;11.876;2022-12-20T03:09:38;2.90;79.00
14585;DHT22;7379;51.506;11.876;2022-12-20T03:12:06;2.90;78.70
14585;DHT22;7379;51.506;11.876;2022-12-20T03:14:33;2.90;78.40
14585;DHT22;7379;51.506;11.876;2022-12-20T03:16:59;2.90;78.20
14585;DHT22;7379;51.506;11.876;2022-12-20T03:19:28;2.90;77.90
14585;DHT22;7379;51.506;11.876;2022-12-20T03:21:55;2.90;77.60
14585;DHT22;7379;51.506;11.876;2022-12-20T03:24:21;2.90;77.50
14585;DHT22;7379;51.506;11.876;2022-12-20T03:26:48;2.90;77.40
14585;DHT22;7379;51.506;11.876;2022-12-20T03:29:15;2.90;77.20
14585;DHT22;7379;51.506;11.876;2022-12-20T03:31:42;2.90;77.20
14585;DHT22;7379;51.506;11.876;2022-12-20T03:34:08;2.90;77.10
14585;DHT22;7379;51.506;11.876;2022-12-20T03:36:37;2.90;77.50
14585;DHT22;7379;51.506;11.876;2022-12-20T03:39:03;2.90;77.60
14585;DHT22;7379;51.506;11.876;2022-12-20T03:41:30;2.90;77.90
14585;DHT22;7379;51.506;11.876;2022-12-20T03:43:57;2.90;78.50
14585;DHT22;7379;51.506;11.876;2022-12-20T03:46:24;3.00;79.20
14585;DHT22;7379;51.506;11.876;2022-12-20T03:48:52;3.00;79.20
14585;DHT22;7379;51.506;11.876;2022-12-20T03:51:19;3.00;79.40
14585;DHT22;7379;51.506;11.876;2022-12-20T03:53:47;3.00;79.00
14585;DHT22;7379;51.506;11.876;2022-12-20T03:56:14;3.00;78.60
14585;DHT22;7379;51.506;11.876;2022-12-20T03:58:41;3.10;78.90
14585;DHT22;7379;51.506;11.876;2022-12-20T04:01:19;3.10;78.50
14585;DHT22;7379;51.506;11.876;2022-12-20T04:03:46;3.10;79.10
14585;DHT22;7379;51.506;11.876;2022-12-20T04:06:13;3.10;79.50
14585;DHT22;7379;51.506;11.876;2022-12-20T04:08:40;3.10;79.60
14585;DHT22;7379;51.506;11.876;2022-12-20T04:11:08;3.10;79.80
14585;DHT22;7379;51.506;11.876;2022-12-20T04:13:44;3.10;79.80
14585;DHT22;7379;51.506;11.876;2022-12-20T04:16:12;3.20;79.50
14585;DHT22;7379;51.506;11.876;2022-12-20T04:18:39;3.10;79.50
14585;DHT22;7379;51.506;11.876;2022-12-20T04:21:06;3.10;78.50
14585;DHT22;7379;51.506;11.876;2022-12-20T04:23:34;3.10;78.70
14585;DHT22;7379;51.506;11.876;2022-12-20T04:26:02;3.10;79.20
14585;DHT22;7379;51.506;11.876;2022-12-20T04:28:31;3.10;79.10
14585;DHT22;7379;51.506;11.876;2022-12-20T04:30:58;3.20;79.60
14585;DHT22;7379;51.506;11.876;2022-12-20T04:33:26;3.10;79.20
14585;DHT22;7379;51.506;11.876;2022-12-20T04:35:53;3.10;78.90
14585;DHT22;7379;51.506;11.876;2022-12-20T04:38:21;3.10;78.60
14585;DHT22;7379;51.506;11.876;2022-12-20T04:40:48;3.20;78.90
14585;DHT22;7379;51.506;11.876;2022-12-20T04:43:15;3.20;79.10
14585;DHT22;7379;51.506;11.876;2022-12-20T04:45:46;3.20;79.10
14585;DHT22;7379;51.506;11.876;2022-12-20T04:48:14;3.20;78.90
14585;DHT22;7379;51.506;11.876;2022-12-20T04:50:41;3.20;78.90
14585;DHT22;7379;51.506;11.876;2022-12-20T04:53:08;3.20;79.20
14585;DHT22;7379;51.506;11.876;2022-12-20T04:55:53;3.10;78.70
14585;DHT22;7379;51.506;11.876;2022-12-20T04:58:20;3.10;79.00
14585;DHT22;7379;51.506;11.876;2022-12-20T05:00:49;3.20;79.30
14585;DHT22;7379;51.506;11.876;2022-12-20T05:03:16;3.20;79.90
14585;DHT22;7379;51.506;11.876;2022-12-20T05:05:43;3.20;80.10
14585;DHT22;7379;51.506;11.876;2022-12-20T05:08:10;3.20;80.00
14585;DHT22;7379;51.506;11.876;2022-12-20T05:10:37;3.20;80.50
14585;DHT22;7379;51.506;11.876;2022-12-20T05:13:04;3.20;80.70
14585;DHT22;7379;51.506;11.876;2022-12-20T05:15:31;3.30;80.60
14585;DHT22;7379;51.506;11.876;2022-12-20T05:17:59;3.30;80.60
14585;DHT22;7379;51.506;11.876;2022-12-20T05:20:26;3.30;80.70
14585;DHT22;7379;51.506;11.876;2022-12-20T05:22:53;3.40;81.20
14585;DHT22;7379;51.506;11.876;2022-12-20T05:25:38;3.40;81.30
14585;DHT22;7379;51.506;11.876;2022-12-20T05:28:22;3.40;80.90
14585;DHT22;7379;51.506;11.876;2022-12-20T05:30:49;3.40;80.70
14585;DHT22;7379;51.506;11.876;2022-12-20T05:33:18;3.40;80.70
14585;DHT22;7379;51.506;11.876;2022-12-20T05:35:44;3.40;80.00
14585;DHT22;7379;51.506;11.876;2022-12-20T05:38:11;3.40;79.40
14585;DHT22;7379;51.506;11.876;2022-12-20T05:40:39;3.40;79.50
14585;DHT22;7379;51.506;11.876;2022-12-20T05:43:06;3.40;79.60
14585;DHT22;7379;51.506;11.876;2022-12-20T05:45:33;3.40;78.80
14585;DHT22;7379;51.506;11.876;2022-12-20T05:48:00;3.30;78.20
14585;DHT22;7379;51.506;11.876;2022-12-20T05:50:29;3.40;78.00
14585;DHT22;7379;51.506;11.876;2022-12-20T05:52:56;3.40;78.20
14585;DHT22;7379;51.506;11.876;2022-12-20T05:55:22;3.40;78.30
14585;DHT22;7379;51.506;11.876;2022-12-20T05:57:49;3.40;78.30
14585;DHT22;7379;51.506;11.876;2022-12-20T06:00:16;3.40;78.30
14585;DHT22;7379;51.506;11.876;2022-12-20T06:02:43;3.40;78.30
14585;DHT22;7379;51.506;11.876;2022-12-20T06:05:10;3.40;78.20
14585;DHT22;7379;51.506;11.876;2022-12-20T06:07:38;3.40;78.00
14585;DHT22;7379;51.506;11.876;2022-12-20T06:10:06;3.40;78.20
14585;DHT22;7379;51.506;11.876;2022-12-20T06:12:33;3.40;78.40
14585;DHT22;7379;51.506;11.876;2022-12-20T06:15:00;3.40;78.20
14585;DHT22;7379;51.506;11.876;2022-12-20T06:17:27;3.40;78.30
14585;DHT22;7379;51.506;11.876;2022-12-20T06:19:53;3.40;78.30
14585;DHT22;7379;51.506;11.876;2022-12-20T06:22:21;3.40;78.10
14585;DHT22;7379;51.506;11.876;2022-12-20T06:24:49;3.40;78.10
14585;DHT22;7379;51.506;11.876;2022-12-20T06:27:16;3.40;78.80
14585;DHT22;7379;51.506;11.876;2022-12-20T06:29:43;3.50;79.20
14585;DHT22;7379;51.506;11.876;2022-12-20T06:32:16;3.40;78.80
14585;DHT22;7379;51.506;11.876;2022-12-20T06:34:43;3.40;78.70
14585;DHT22;7379;51.506;11.876;2022-12-20T06:37:10;3.40;78.50
14585;DHT22;7379;51.506;11.876;2022-12-20T06:39:36;3.50;78.40
14585;DHT22;7379;51.506;11.876;2022-12-20T06:42:04;3.40;78.40
14585;DHT22;7379;51.506;11.876;2022-12-20T06:44:31;3.50;78.30
14585;DHT22;7379;51.506;11.876;2022-12-20T06:46:58;3.50;78.10
14585;DHT22;7379;51.506;11.876;2022-12-20T06:49:25;3.50;78.20
14585;DHT22;7379;51.506;11.876;2022-12-20T06:51:51;3.50;78.40
14585;DHT22;7379;51.506;11.876;2022-12-20T06:54:18;3.50;78.50
14585;DHT22;7379;51.506;11.876;2022-12-20T06:56:45;3.50;78.70
14585;DHT22;7379;51.506;11.876;2022-12-20T06:59:13;3.50;78.80
14585;DHT22;7379;51.506;11.876;2022-12-20T07:01:40;3.50;78.70
14585;DHT22;7379;51.506;11.876;2022-12-20T07:04:07;3.50;78.70
14585;DHT22;7379;51.506;11.876;2022-12-20T07:06:33;3.50;78.70
14585;DHT22;7379;51.506;11.876;2022-12-20T07:09:01;3.50;78.60
14585;DHT22;7379;51.506;11.876;2022-12-20T07:11:28;3.50;78.40
14585;DHT22;7379;51.506;11.876;2022-12-20T07:13:55;3.50;78.60
14585;DHT22;7379;51.506;11.876;2022-12-20T07:16:24;3.50;78.60
14585;DHT22;7379;51.506;11.876;2022-12-20T07:18:51;3.60;78.50
14585;DHT22;7379;51.506;11.876;2022-12-20T07:21:18;3.50;78.50
14585;DHT22;7379;51.506;11.876;2022-12-20T07:23:46;3.60;78.60
14585;DHT22;7379;51.506;11.876;2022-12-20T07:26:13;3.60;78.50
14585;DHT22;7379;51.506;11.876;2022-12-20T07:28:41;3.60;78.40
14585;DHT22;7379;51.506;11.876;2022-12-20T07:31:08;3.60;78.50
14585;DHT22;7379;51.506;11.876;2022-12-20T07:33:36;3.60;78.80
14585;DHT22;7379;51.506;11.876;2022-12-20T07:36:05;3.60;79.60
14585;DHT22;7379;51.506;11.876;2022-12-20T07:38:32;3.60;78.40
14585;DHT22;7379;51.506;11.876;2022-12-20T07:41:00;3.60;78.30
14585;DHT22;7379;51.506;11.876;2022-12-20T07:43:26;3.60;78.40
14585;DHT22;7379;51.506;11.876;2022-12-20T07:45:54;3.60;78.40
14585;DHT22;7379;51.506;11.876;2022-12-20T07:48:21;3.60;78.50
14585;DHT22;7379;51.506;11.876;2022-12-20T07:50:50;3.60;78.50
14585;DHT22;7379;51.506;11.876;2022-12-20T07:53:18;3.60;78.40
14585;DHT22;7379;51.506;11.876;2022-12-20T07:55:46;3.60;78.50
14585;DHT22;7379;51.506;11.876;2022-12-20T07:58:14;3.60;78.60
14585;DHT22;7379;51.506;11.876;2022-12-20T08:00:43;3.60;78.50
14585;DHT22;7379;51.506;11.876;2022-12-20T08:03:12;3.60;78.70
14585;DHT22;7379;51.506;11.876;2022-12-20T08:05:44;3.70;79.00
14585;DHT22;7379;51.506;11.876;2022-12-20T08:08:14;3.70;79.00
14585;DHT22;7379;51.506;11.876;2022-12-20T08:10:41;3.70;78.80
14585;DHT22;7379;51.506;11.876;2022-12-20T08:13:09;3.70;79.00
14585;DHT22;7379;51.506;11.876;2022-12-20T08:15:36;3.70;79.00
14585;DHT22;7379;51.506;11.876;2022-12-20T08:18:03;3.70;79.10
14585;DHT22;7379;51.506;11.876;2022-12-20T08:20:30;3.70;79.10
14585;DHT22;7379;51.506;11.876;2022-12-20T08:22:57;3.70;78.90
14585;DHT22;7379;51.506;11.876;2022-12-20T08:25:25;3.70;78.70
14585;DHT22;7379;51.506;11.876;2022-12-20T08:27:52;3.70;78.70
14585;DHT22;7379;51.506;11.876;2022-12-20T08:30:19;3.70;78.60
14585;DHT22;7379;51.506;11.876;2022-12-20T08:32:46;3.70;78.50
14585;DHT22;7379;51.506;11.876;2022-12-20T08:35:13;3.70;78.40
14585;DHT22;7379;51.506;11.876;2022-12-20T08:37:39;3.70;78.40
14585;DHT22;7379;51.506;11.876;2022-12-20T08:40:07;3.70;78.60
14585;DHT22;7379;51.506;11.876;2022-12-20T08:42:36;3.70;78.50
14585;DHT22;7379;51.506;11.876;2022-12-20T08:45:03;3.70;78.40
14585;DHT22;7379;51.506;11.876;2022-12-20T08:47:30;3.80;78.50
14585;DHT22;7379;51.506;11.876;2022-12-20T08:49:57;3.80;78.60
14585;DHT22;7379;51.506;11.876;2022-12-20T08:52:24;3.80;78.70
14585;DHT22;7379;51.506;11.876;2022-12-20T08:54:50;3.80;78.80
14585;DHT22;7379;51.506;11.876;2022-12-20T08:57:17;3.80;78.70
14585;DHT22;7379;51.506;11.876;2022-12-20T08:59:45;3.80;78.70
14585;DHT22;7379;51.506;11.876;2022-12-20T09:02:13;3.80;78.90
14585;DHT22;7379;51.506;11.876;2022-12-20T09:04:39;3.80;79.00
14585;DHT22;7379;51.506;11.876;2022-12-20T09:07:06;3.80;79.00
14585;DHT22;7379;51.506;11.876;2022-12-20T09:09:33;3.90;79.10
14585;DHT22;7379;51.506;11.876;2022-12-20T09:12:00;3.90;79.00
14585;DHT22;7379;51.506;11.876;2022-12-20T09:14:27;3.90;79.10
14585;DHT22;7379;51.506;11.876;2022-12-20T09:16:55;3.90;79.30
14585;DHT22;7379;51.506;11.876;2022-12-20T09:19:22;3.90;79.00
14585;DHT22;7379;51.506;11.876;2022-12-20T09:21:49;3.90;78.90
14585;DHT22;7379;51.506;11.876;2022-12-20T09:24:15;3.90;78.60
14585;DHT22;7379;51.506;11.876;2022-12-20T09:26:42;3.90;78.60
14585;DHT22;7379;51.506;11.876;2022-12-20T09:29:09;3.90;78.60
14585;DHT22;7379;51.506;11.876;2022-12-20T09:31:36;3.90;79.00
14585;DHT22;7379;51.506;11.876;2022-12-20T09:34:04;3.90;79.10
14585;DHT22;7379;51.506;11.876;2022-12-20T09:36:31;3.90;79.00
14585;DHT22;7379;51.506;11.876;2022-12-20T09:38:57;3.90;79.30
14585;DHT22;7379;51.506;11.876;2022-12-20T09:41:28;4.00;79.30
14585;DHT22;7379;51.506;11.876;2022-12-20T09:43:57;3.90;79.00
14585;DHT22;7379;51.506;11.876;2022-12-20T09:46:24;3.90;79.00
14585;DHT22;7379;51.506;11.876;2022-12-20T09:48:52;4.00;79.10
14585;DHT22;7379;51.506;11.876;2022-12-20T09:51:42;4.00;79.50
14585;DHT22;7379;51.506;11.876;2022-12-20T09:54:19;4.00;79.40
14585;DHT22;7379;51.506;11.876;2022-12-20T09:56:55;4.00;79.50
14585;DHT22;7379;51.506;11.876;2022-12-20T09:59:23;4.00;79.40
14585;DHT22;7379;51.506;11.876;2022-12-20T10:01:50;4.00;79.70
14585;DHT22;7379;51.506;11.876;2022-12-20T10:04:21;4.00;79.80
14585;DHT22;7379;51.506;11.876;2022-12-20T10:07:01;4.10;79.70
14585;DHT22;7379;51.506;11.876;2022-12-20T10:12:40;4.10;79.50
14585;DHT22;7379;51.506;11.876;2022-12-20T10:15:18;4.00;79.30
14585;DHT22;7379;51.506;11.876;2022-12-20T10:18:03;4.00;79.50
14585;DHT22;7379;51.506;11.876;2022-12-20T10:20:45;4.00;79.70
14585;DHT22;7379;51.506;11.876;2022-12-20T10:23:24;4.00;80.00
14585;DHT22;7379;51.506;11.876;2022-12-20T10:25:54;4.10;80.20
14585;DHT22;7379;51.506;11.876;2022-12-20T10:28:25;4.10;80.40
14585;DHT22;7379;51.506;11.876;2022-12-20T10:30:53;4.10;80.30
14585;DHT22;7379;51.506;11.876;2022-12-20T10:33:21;4.10;80.20
14585;DHT22;7379;51.506;11.876;2022-12-20T10:35:49;4.10;80.20
14585;DHT22;7379;51.506;11.876;2022-12-20T10:38:17;4.10;80.30
14585;DHT22;7379;51.506;11.876;2022-12-20T10:40:47;4.10;80.30
14585;DHT22;7379;51.506;11.876;2022-12-20T10:43:24;4.20;83.30
14585;DHT22;7379;51.506;11.876;2022-12-20T10:45:56;4.30;84.30
14585;DHT22;7379;51.506;11.876;2022-12-20T10:48:32;4.30;84.20
14585;DHT22;7379;51.506;11.876;2022-12-20T10:51:01;4.30;83.60
14585;DHT22;7379;51.506;11.876;2022-12-20T10:53:28;4.30;82.90
14585;DHT22;7379;51.506;11.876;2022-12-20T10:56:12;4.30;82.50
14585;DHT22;7379;51.506;11.876;2022-12-20T10:58:42;4.30;82.20
14585;DHT22;7379;51.506;11.876;2022-12-20T11:01:18;4.30;82.00
14585;DHT22;7379;51.506;11.876;2022-12-20T11:03:50;4.30;81.70
14585;DHT22;7379;51.506;11.876;2022-12-20T11:06:19;4.30;81.60
14585;DHT22;7379;51.506;11.876;2022-12-20T11:08:46;4.30;81.60
14585;DHT22;7379;51.506;11.876;2022-12-20T11:11:18;4.30;81.70
14585;DHT22;7379;51.506;11.876;2022-12-20T11:13:46;4.30;81.60
14585;DHT22;7379;51.506;11.876;2022-12-20T11:16:25;4.40;81.80
14585;DHT22;7379;51.506;11.876;2022-12-20T11:19:02;4.40;82.30
14585;DHT22;7379;51.506;11.876;2022-12-20T11:21:39;4.40;81.80
14585;DHT22;7379;51.506;11.876;2022-12-20T11:24:11;4.40;81.70
14585;DHT22;7379;51.506;11.876;2022-12-20T11:26:51;4.50;81.50
14585;DHT22;7379;51.506;11.876;2022-12-20T11:29:31;4.50;81.30
14585;DHT22;7379;51.506;11.876;2022-12-20T11:32:07;4.50;81.30
14585;DHT22;7379;51.506;11.876;2022-12-20T11:34:43;4.50;81.30
14585;DHT22;7379;51.506;11.876;2022-12-20T11:37:32;4.50;81.40
14585;DHT22;7379;51.506;11.876;2022-12-20T11:40:10;4.50;81.40
14585;DHT22;7379;51.506;11.876;2022-12-20T11:42:53;4.50;81.40
14585;DHT22;7379;51.506;11.876;2022-12-20T11:45:29;4.50;81.40
14585;DHT22;7379;51.506;11.876;2022-12-20T11:48:09;4.50;81.20
14585;DHT22;7379;51.506;11.876;2022-12-20T11:51:03;4.50;81.30
14585;DHT22;7379;51.506;11.876;2022-12-20T11:53:34;4.50;81.30
14585;DHT22;7379;51.506;11.876;2022-12-20T11:56:07;4.50;81.20
14585;DHT22;7379;51.506;11.876;2022-12-20T11:58:44;4.50;81.40
14585;DHT22;7379;51.506;11.876;2022-12-20T12:01:14;4.50;81.20
14585;DHT22;7379;51.506;11.876;2022-12-20T12:03:47;4.50;81.30
14585;DHT22;7379;51.506;11.876;2022-12-20T12:06:22;4.50;81.40
14585;DHT22;7379;51.506;11.876;2022-12-20T12:08:54;4.50;81.50
14585;DHT22;7379;51.506;11.876;2022-12-20T12:11:24;4.60;81.50
14585;DHT22;7379;51.506;11.876;2022-12-20T12:13:54;4.60;81.40
14585;DHT22;7379;51.506;11.876;2022-12-20T12:16:26;4.60;81.30
14585;DHT22;7379;51.506;11.876;2022-12-20T12:18:53;4.50;81.10
14585;DHT22;7379;51.506;11.876;2022-12-20T12:21:23;4.50;81.10
14585;DHT22;7379;51.506;11.876;2022-12-20T12:23:57;4.60;81.30
14585;DHT22;7379;51.506;11.876;2022-12-20T12:26:28;4.60;81.30
14585;DHT22;7379;51.506;11.876;2022-12-20T12:29:12;4.60;81.30
14585;DHT22;7379;51.506;11.876;2022-12-20T12:31:52;4.60;82.00
14585;DHT22;7379;51.506;11.876;2022-12-20T12:34:31;4.60;81.20
14585;DHT22;7379;51.506;11.876;2022-12-20T12:37:25;4.50;81.10
14585;DHT22;7379;51.506;11.876;2022-12-20T12:43:11;4.60;81.10
14585;DHT22;7379;51.506;11.876;2022-12-20T12:45:45;4.60;81.10
14585;DHT22;7379;51.506;11.876;2022-12-20T12:48:15;4.60;81.00
14585;DHT22;7379;51.506;11.876;2022-12-20T12:50:46;4.60;81.00
14585;DHT22;7379;51.506;11.876;2022-12-20T12:53:16;4.60;81.00
14585;DHT22;7379;51.506;11.876;2022-12-20T12:55:44;4.60;80.80
14585;DHT22;7379;51.506;11.876;2022-12-20T13:01:08;4.60;80.60
14585;DHT22;7379;51.506;11.876;2022-12-20T13:03:38;4.60;80.70
14585;DHT22;7379;51.506;11.876;2022-12-20T13:09:18;4.60;80.60
14585;DHT22;7379;51.506;11.876;2022-12-20T13:11:47;4.60;80.70
14585;DHT22;7379;51.506;11.876;2022-12-20T13:20:24;4.60;80.70
14585;DHT22;7379;51.506;11.876;2022-12-20T13:23:13;4.60;80.60
14585;DHT22;7379;51.506;11.876;2022-12-20T13:25:43;4.60;80.60
14585;DHT22;7379;51.506;11.876;2022-12-20T13:28:44;4.60;80.70
14585;DHT22;7379;51.506;11.876;2022-12-20T13:31:31;4.60;80.70
14585;DHT22;7379;51.506;11.876;2022-12-20T13:34:00;4.60;80.70
14585;DHT22;7379;51.506;11.876;2022-12-20T13:36:38;4.60;80.70
14585;DHT22;7379;51.506;11.876;2022-12-20T13:39:33;4.70;80.70
14585;DHT22;7379;51.506;11.876;2022-12-20T13:42:21;4.60;80.60
14585;DHT22;7379;51.506;11.876;2022-12-20T13:44:52;4.70;80.50
14585;DHT22;7379;51.506;11.876;2022-12-20T13:47:37;4.70;80.50
14585;DHT22;7379;51.506;11.876;2022-12-20T13:53:01;4.70;80.50
14585;DHT22;7379;51.506;11.876;2022-12-20T13:55:35;4.70;80.50
14585;DHT22;7379;51.506;11.876;2022-12-20T13:58:14;4.70;80.40
14585;DHT22;7379;51.506;11.876;2022-12-20T14:00:42;4.70;80.30
14585;DHT22;7379;51.506;11.876;2022-12-20T14:03:20;4.70;80.10
14585;DHT22;7379;51.506;11.876;2022-12-20T14:05:47;4.70;80.20
14585;DHT22;7379;51.506;11.876;2022-12-20T14:08:17;4.70;80.20
14585;DHT22;7379;51.506;11.876;2022-12-20T14:10:46;4.70;80.10
14585;DHT22;7379;51.506;11.876;2022-12-20T14:13:19;4.70;80.20
14585;DHT22;7379;51.506;11.876;2022-12-20T14:15:47;4.70;80.20
14585;DHT22;7379;51.506;11.876;2022-12-20T14:18:16;4.70;80.10
14585;DHT22;7379;51.506;11.876;2022-12-20T14:20:45;4.70;80.00
14585;DHT22;7379;51.506;11.876;2022-12-20T14:23:16;4.70;80.00
14585;DHT22;7379;51.506;11.876;2022-12-20T14:25:47;4.70;80.00
14585;DHT22;7379;51.506;11.876;2022-12-20T14:28:24;4.70;79.90
14585;DHT22;7379;51.506;11.876;2022-12-20T14:30:53;4.70;79.90
14585;DHT22;7379;51.506;11.876;2022-12-20T14:33:26;4.70;79.80
14585;DHT22;7379;51.506;11.876;2022-12-20T14:35:54;4.70;79.90
14585;DHT22;7379;51.506;11.876;2022-12-20T14:38:23;4.70;79.90
14585;DHT22;7379;51.506;11.876;2022-12-20T14:40:50;4.70;80.00
14585;DHT22;7379;51.506;11.876;2022-12-20T14:43:24;4.70;80.00
14585;DHT22;7379;51.506;11.876;2022-12-20T14:46:16;4.70;80.00
14585;DHT22;7379;51.506;11.876;2022-12-20T14:48:43;4.70;80.00
14585;DHT22;7379;51.506;11.876;2022-12-20T14:51:11;4.70;80.00
14585;DHT22;7379;51.506;11.876;2022-12-20T14:53:44;4.70;79.90
14585;DHT22;7379;51.506;11.876;2022-12-20T14:56:13;4.70;80.00
14585;DHT22;7379;51.506;11.876;2022-12-20T14:58:41;4.70;80.00
14585;DHT22;7379;51.506;11.876;2022-12-20T15:01:18;4.70;80.00
14585;DHT22;7379;51.506;11.876;2022-12-20T15:03:49;4.70;79.90
14585;DHT22;7379;51.506;11.876;2022-12-20T15:06:31;4.70;79.90
14585;DHT22;7379;51.506;11.876;2022-12-20T15:09:00;4.70;80.00
14585;DHT22;7379;51.506;11.876;2022-12-20T15:11:27;4.70;79.80
14585;DHT22;7379;51.506;11.876;2022-12-20T15:13:55;4.70;79.80
14585;DHT22;7379;51.506;11.876;2022-12-20T15:16:24;4.70;79.90
14585;DHT22;7379;51.506;11.876;2022-12-20T15:18:53;4.70;79.90
14585;DHT22;7379;51.506;11.876;2022-12-20T15:21:26;4.70;79.80
14585;DHT22;7379;51.506;11.876;2022-12-20T15:23:54;4.70;79.80
14585;DHT22;7379;51.506;11.876;2022-12-20T15:26:25;4.70;79.80
14585;DHT22;7379;51.506;11.876;2022-12-20T15:28:53;4.70;79.80
14585;DHT22;7379;51.506;11.876;2022-12-20T15:31:21;4.70;79.90
14585;DHT22;7379;51.506;11.876;2022-12-20T15:33:50;4.70;79.90
14585;DHT22;7379;51.506;11.876;2022-12-20T15:36:20;4.70;79.90
14585;DHT22;7379;51.506;11.876;2022-12-20T15:38:48;4.70;79.90
14585;DHT22;7379;51.506;11.876;2022-12-20T15:41:19;4.70;79.70
14585;DHT22;7379;51.506;11.876;2022-12-20T15:43:50;4.70;79.50
14585;DHT22;7379;51.506;11.876;2022-12-20T15:46:17;4.70;79.30
14585;DHT22;7379;51.506;11.876;2022-12-20T15:48:44;4.70;79.40
14585;DHT22;7379;51.506;11.876;2022-12-20T15:51:15;4.70;79.30
14585;DHT22;7379;51.506;11.876;2022-12-20T15:53:42;4.70;79.30
14585;DHT22;7379;51.506;11.876;2022-12-20T15:56:15;4.70;79.20
14585;DHT22;7379;51.506;11.876;2022-12-20T15:58:42;4.70;79.20
14585;DHT22;7379;51.506;11.876;2022-12-20T16:01:12;4.70;79.30
14585;DHT22;7379;51.506;11.876;2022-12-20T16:03:40;4.70;79.40
14585;DHT22;7379;51.506;11.876;2022-12-20T16:06:09;4.70;79.40
14585;DHT22;7379;51.506;11.876;2022-12-20T16:08:37;4.70;79.30
14585;DHT22;7379;51.506;11.876;2022-12-20T16:11:04;4.70;79.20
14585;DHT22;7379;51.506;11.876;2022-12-20T16:13:32;4.70;79.10
14585;DHT22;7379;51.506;11.876;2022-12-20T16:15:59;4.70;79.00
14585;DHT22;7379;51.506;11.876;2022-12-20T16:18:28;4.70;79.10
14585;DHT22;7379;51.506;11.876;2022-12-20T16:20:55;4.70;79.20
14585;DHT22;7379;51.506;11.876;2022-12-20T16:23:22;4.70;79.30
14585;DHT22;7379;51.506;11.876;2022-12-20T16:25:49;4.70;79.40
14585;DHT22;7379;51.506;11.876;2022-12-20T16:28:16;4.70;79.40
14585;DHT22;7379;51.506;11.876;2022-12-20T16:30:43;4.70;79.50